KERV/ERV METAR and TAF weather

Enter ICAO airport designator
Station Type Date Time Source
KERV METAR 2019/12/13 16:55 UTC NOAA

KERV 131655Z AUTO 27007KT 10SM CLR 22/05 A2997 RMK AO2 T02170049


Station Type Date Time Source
KERV Decoded METAR 2019/12/13 16:55 UTC NOAA

Kerrville, Kerrville Municipal Airport/Louis Schreiner Field, TX, United States (KERV) 29-58N 099-05W
Dec 13, 2019 - 11:55 AM EST / 2019.12.13 1655 UTC
Wind: from the W (270 degrees) at 8 MPH (7 KT):0
Visibility: 10 mile(s):0
Sky conditions: clear
Temperature: 71.1 F (21.7 C)
Dew Point: 40.8 F (4.9 C)
Relative Humidity: 33%
Pressure (altimeter): 29.97 in. Hg (1014 hPa)
ob: KERV 131655Z AUTO 27007KT 10SM CLR 22/05 A2997 RMK AO2 T02170049
cycle: 17

Station Type Date Time Source
KERV TAF UTC NOAA

Error!

Example: see airport list